createdAt,value
2023-04-12T00:00:14.510Z,2.97
2023-04-12T00:02:42.121Z,2.88
2023-04-12T00:05:11.945Z,3.55
2023-04-12T00:07:39.196Z,3.10
2023-04-12T00:10:10.657Z,3.45
2023-04-12T00:12:37.238Z,2.65
2023-04-12T00:15:05.173Z,2.72
2023-04-12T00:17:33.352Z,3.25
2023-04-12T00:19:59.961Z,2.75
2023-04-12T00:22:26.654Z,2.95
2023-04-12T00:24:53.239Z,3.03
2023-04-12T00:27:19.935Z,3.17
2023-04-12T00:29:46.482Z,3.15
2023-04-12T00:32:13.052Z,2.70
2023-04-12T00:34:39.803Z,2.42
2023-04-12T00:37:06.373Z,3.08
2023-04-12T00:39:32.910Z,2.78
2023-04-12T00:42:04.169Z,2.60
2023-04-12T00:44:32.838Z,3.13
2023-04-12T00:47:00.323Z,3.27
2023-04-12T00:49:30.722Z,2.53
2023-04-12T00:52:14.781Z,3.20
2023-04-12T00:54:42.240Z,2.80
2023-04-12T00:57:10.847Z,2.58
2023-04-12T00:59:37.382Z,2.78
2023-04-12T01:02:04.105Z,2.78
2023-04-12T01:04:30.929Z,2.67
2023-04-12T01:07:34.156Z,2.90
2023-04-12T01:10:00.771Z,2.08
2023-04-12T01:12:44.553Z,2.63
2023-04-12T01:15:15.834Z,2.30
2023-04-12T01:17:59.566Z,2.58
2023-04-12T01:20:33.877Z,2.35
2023-04-12T01:23:06.403Z,2.28
2023-04-12T01:25:45.888Z,2.90
2023-04-12T01:30:43.227Z,2.20
2023-04-12T01:33:12.314Z,2.90
2023-04-12T01:35:40.076Z,2.42
2023-04-12T01:38:08.344Z,2.35
2023-04-12T01:40:40.439Z,2.40
2023-04-12T01:43:12.041Z,2.45
2023-04-12T01:45:39.135Z,2.40
2023-04-12T01:48:10.890Z,2.78
2023-04-12T01:51:06.453Z,2.42
2023-04-12T01:53:38.593Z,2.20
2023-04-12T01:56:09.263Z,1.83
2023-04-12T01:58:39.073Z,2.72
2023-04-12T02:01:07.345Z,2.38
2023-04-12T02:03:37.534Z,2.08
2023-04-12T02:06:05.785Z,2.10
2023-04-12T02:08:33.332Z,2.03
2023-04-12T02:10:59.940Z,2.03
2023-04-12T02:13:26.692Z,2.17
2023-04-12T02:15:54.776Z,2.75
2023-04-12T02:18:21.699Z,2.30
2023-04-12T02:20:49.940Z,2.55
2023-04-12T02:23:16.498Z,2.33
2023-04-12T02:25:46.446Z,2.30
2023-04-12T02:28:15.053Z,2.38
2023-04-12T02:30:41.745Z,2.50
2023-04-12T02:33:09.797Z,2.63
2023-04-12T02:35:37.375Z,2.92
2023-04-12T02:38:08.639Z,2.35
2023-04-12T02:40:40.674Z,2.20
2023-04-12T02:43:09.243Z,2.50
2023-04-12T02:45:41.009Z,2.03
2023-04-12T02:48:09.450Z,2.00
2023-04-12T02:50:37.411Z,1.75
2023-04-12T02:53:16.897Z,2.40
2023-04-12T02:55:57.200Z,1.88
2023-04-12T02:58:27.335Z,2.35
2023-04-12T03:00:53.914Z,2.35
2023-04-12T03:03:28.476Z,2.10
2023-04-12T03:05:58.731Z,2.05
2023-04-12T03:08:26.079Z,2.17
2023-04-12T03:10:56.880Z,2.22
2023-04-12T03:13:25.771Z,2.50
2023-04-12T03:15:59.459Z,2.20
2023-04-12T03:18:32.844Z,2.22
2023-04-12T03:20:59.861Z,2.40
2023-04-12T03:23:26.786Z,2.70
2023-04-12T03:26:03.790Z,2.50
2023-04-12T03:28:32.620Z,2.50
2023-04-12T03:31:01.038Z,2.20
2023-04-12T03:33:37.972Z,2.08
2023-04-12T03:36:06.233Z,2.25
2023-04-12T03:38:32.958Z,2.53
2023-04-12T03:40:59.936Z,2.10
2023-04-12T03:43:37.324Z,3.03
2023-04-12T03:46:15.799Z,2.60
2023-04-12T03:48:44.014Z,2.03
2023-04-12T03:51:12.264Z,2.45
2023-04-12T03:53:43.341Z,2.80
2023-04-12T03:56:14.212Z,2.75
2023-04-12T03:58:43.008Z,2.15
2023-04-12T04:01:10.507Z,2.40
2023-04-12T04:03:37.573Z,1.90
2023-04-12T04:06:17.364Z,2.07
2023-04-12T04:08:45.016Z,2.00
2023-04-12T04:11:13.037Z,1.90
2023-04-12T04:13:43.479Z,2.00
2023-04-12T04:16:17.943Z,1.80
2023-04-12T04:18:44.769Z,1.67
2023-04-12T04:21:16.737Z,1.90
2023-04-12T04:26:16.855Z,1.90
2023-04-12T04:28:50.280Z,2.20
2023-04-12T04:31:22.293Z,2.03
2023-04-12T04:33:50.825Z,1.95
2023-04-12T04:36:19.761Z,1.88
2023-04-12T04:38:52.104Z,2.15
2023-04-12T04:41:42.099Z,1.90
2023-04-12T04:44:19.389Z,2.05
2023-04-12T04:46:54.029Z,2.28
2023-04-12T04:49:21.058Z,2.05
2023-04-12T04:51:47.982Z,2.28
2023-04-12T04:54:16.615Z,2.28
2023-04-12T04:56:44.021Z,2.05
2023-04-12T04:59:13.116Z,2.60
2023-04-12T05:01:41.382Z,2.05
2023-04-12T05:04:08.676Z,3.25
2023-04-12T05:06:35.566Z,2.95
2023-04-12T05:09:04.034Z,2.70
2023-04-12T05:11:33.360Z,2.05
2023-04-12T05:14:14.059Z,2.10
2023-04-12T05:16:40.755Z,2.10
2023-04-12T05:19:07.400Z,2.22
2023-04-12T05:21:34.642Z,2.03
2023-04-12T05:24:01.498Z,1.83
2023-04-12T05:26:29.626Z,2.08
2023-04-12T05:28:58.301Z,1.88
2023-04-12T05:31:25.211Z,1.50
2023-04-12T05:33:53.754Z,1.50
2023-04-12T05:36:24.043Z,2.17
2023-04-12T05:38:52.272Z,1.90
2023-04-12T05:41:18.869Z,1.80
2023-04-12T05:43:47.241Z,1.50
2023-04-12T05:46:14.447Z,1.13
2023-04-12T05:48:43.078Z,2.03
2023-04-12T05:51:09.664Z,1.10
2023-04-12T05:53:36.302Z,1.70
2023-04-12T05:56:05.763Z,1.55
2023-04-12T05:58:33.536Z,1.83
2023-04-12T06:01:00.212Z,1.35
2023-04-12T06:03:30.266Z,2.20
2023-04-12T06:06:02.571Z,1.55
2023-04-12T06:08:30.178Z,1.80
2023-04-12T06:10:56.923Z,1.60
2023-04-12T06:13:23.609Z,1.25
2023-04-12T06:15:50.281Z,1.40
2023-04-12T06:18:17.732Z,1.30
2023-04-12T06:20:45.398Z,1.48
2023-04-12T06:23:12.852Z,1.52
2023-04-12T06:25:40.313Z,1.55
2023-04-12T06:28:09.343Z,1.30
2023-04-12T06:30:47.771Z,1.50
2023-04-12T06:33:14.479Z,1.50
2023-04-12T06:35:41.735Z,1.15
2023-04-12T06:38:08.425Z,1.75
2023-04-12T06:40:35.139Z,1.80
2023-04-12T06:43:01.927Z,1.60
2023-04-12T06:45:28.502Z,1.50
2023-04-12T06:47:56.932Z,1.80
2023-04-12T06:50:23.802Z,1.63
2023-04-12T06:52:50.513Z,1.52
2023-04-12T06:55:17.439Z,2.20
2023-04-12T06:57:47.779Z,2.97
2023-04-12T07:00:14.677Z,1.85
2023-04-12T07:02:41.513Z,3.78
2023-04-12T07:05:09.734Z,2.40
2023-04-12T07:07:36.575Z,3.75
2023-04-12T07:10:05.011Z,3.45
2023-04-12T07:12:32.001Z,3.53
2023-04-12T07:14:58.621Z,1.80
2023-04-12T07:17:27.095Z,3.50
2023-04-12T07:19:54.557Z,2.90
2023-04-12T07:22:21.336Z,3.90
2023-04-12T07:24:49.465Z,4.45
2023-04-12T07:27:16.560Z,5.15
2023-04-12T07:29:43.159Z,2.05
2023-04-12T07:32:10.812Z,1.88
2023-04-12T07:34:39.369Z,5.28
2023-04-12T07:37:06.260Z,2.22
2023-04-12T07:39:34.866Z,2.78
2023-04-12T07:42:01.701Z,3.00
2023-04-12T07:44:28.318Z,2.92
2023-04-12T07:46:55.181Z,2.40
2023-04-12T07:49:21.826Z,1.95
2023-04-12T07:51:50.991Z,1.70
2023-04-12T07:54:17.661Z,2.88
2023-04-12T07:57:03.805Z,2.00
2023-04-12T07:59:31.784Z,2.10
2023-04-12T08:01:58.536Z,1.60
2023-04-12T08:04:25.192Z,2.75
2023-04-12T08:06:55.604Z,2.55
2023-04-12T08:09:22.158Z,1.50
2023-04-12T08:11:48.737Z,2.58
2023-04-12T08:14:15.328Z,1.40
2023-04-12T08:16:41.983Z,2.10
2023-04-12T08:19:08.721Z,1.88
2023-04-12T08:21:35.626Z,2.72
2023-04-12T08:24:02.559Z,1.73
2023-04-12T08:26:29.932Z,1.80
2023-04-12T08:28:57.692Z,1.70
2023-04-12T08:31:24.433Z,2.00
2023-04-12T08:33:51.221Z,1.63
2023-04-12T08:36:17.905Z,1.70
2023-04-12T08:38:46.388Z,1.13
2023-04-12T08:41:14.430Z,1.48
2023-04-12T08:43:45.643Z,1.40
2023-04-12T08:46:15.580Z,1.70
2023-04-12T08:48:46.271Z,1.48
2023-04-12T08:51:21.021Z,1.92
2023-04-12T08:53:48.245Z,1.50
2023-04-12T08:56:16.358Z,2.67
2023-04-12T08:58:48.948Z,2.97
2023-04-12T09:01:16.973Z,1.65
2023-04-12T09:03:44.665Z,2.40
2023-04-12T09:06:12.444Z,2.03
2023-04-12T09:08:56.195Z,1.83
2023-04-12T09:11:28.177Z,2.03
2023-04-12T09:13:56.064Z,2.40
2023-04-12T09:16:35.401Z,1.50
2023-04-12T09:19:04.830Z,2.00
2023-04-12T09:21:34.494Z,1.80
2023-04-12T09:26:33.271Z,1.42
2023-04-12T09:28:59.835Z,1.42
2023-04-12T09:31:26.693Z,1.73
2023-04-12T09:34:07.486Z,1.50
2023-04-12T09:36:38.843Z,1.52
2023-04-12T09:39:06.027Z,1.60
2023-04-12T09:41:32.918Z,1.40
2023-04-12T09:44:00.367Z,1.67
2023-04-12T09:46:27.781Z,1.60
2023-04-12T09:48:56.399Z,1.48
2023-04-12T09:51:33.912Z,1.52
2023-04-12T09:54:05.584Z,1.50
2023-04-12T09:56:34.206Z,1.40
2023-04-12T09:59:06.056Z,1.23
2023-04-12T10:01:36.960Z,1.02
2023-04-12T10:04:06.381Z,1.00
2023-04-12T10:09:04.322Z,0.90
2023-04-12T10:11:32.053Z,1.13
2023-04-12T10:13:59.014Z,1.30
2023-04-12T10:16:27.576Z,1.20
2023-04-12T10:18:55.301Z,1.20
2023-04-12T10:21:23.122Z,0.98
2023-04-12T10:23:50.508Z,1.20
2023-04-12T10:26:17.842Z,1.00
2023-04-12T10:28:47.888Z,1.50
2023-04-12T10:31:41.900Z,1.40
2023-04-12T10:34:09.121Z,1.35
2023-04-12T10:36:55.609Z,1.65
2023-04-12T10:39:40.491Z,1.38
2023-04-12T10:42:25.414Z,1.30
2023-04-12T10:44:58.738Z,1.50
2023-04-12T10:47:52.996Z,1.10
2023-04-12T10:50:24.972Z,1.20
2023-04-12T10:53:13.344Z,5.78
2023-04-12T10:55:41.174Z,11.15
2023-04-12T10:58:07.850Z,10.65
2023-04-12T11:00:59.300Z,7.18
2023-04-12T11:03:28.407Z,10.25
2023-04-12T11:06:16.251Z,12.63
2023-04-12T11:09:42.686Z,2.63
2023-04-12T11:12:15.105Z,1.67
2023-04-12T11:14:46.082Z,1.70
2023-04-12T11:17:12.816Z,0.93
2023-04-12T11:19:42.119Z,1.00
2023-04-12T11:22:13.752Z,0.82
2023-04-12T11:24:42.757Z,0.70
2023-04-12T11:27:10.031Z,0.90
2023-04-12T11:29:36.744Z,0.93
2023-04-12T11:32:04.791Z,0.70
2023-04-12T11:34:35.451Z,0.77
2023-04-12T11:37:06.533Z,1.95
2023-04-12T11:39:33.446Z,0.90
2023-04-12T11:42:01.978Z,0.65
2023-04-12T11:44:33.591Z,0.85
2023-04-12T11:47:04.753Z,0.70
2023-04-12T11:49:31.549Z,0.50
2023-04-12T11:52:03.249Z,0.60
2023-04-12T11:54:30.660Z,0.68
2023-04-12T11:56:58.647Z,0.60
2023-04-12T11:59:32.944Z,0.50
2023-04-12T12:02:10.824Z,0.50
2023-04-12T12:04:49.399Z,0.35
2023-04-12T12:07:17.935Z,0.47
2023-04-12T12:09:46.596Z,0.50
2023-04-12T12:12:14.225Z,0.70
2023-04-12T12:14:43.379Z,0.80
2023-04-12T12:17:15.451Z,0.80
2023-04-12T12:19:46.366Z,1.00
2023-04-12T12:22:17.524Z,0.80
2023-04-12T12:25:07.124Z,0.90
2023-04-12T12:27:40.784Z,0.57
2023-04-12T12:30:09.497Z,1.25
2023-04-12T12:32:38.902Z,0.68
2023-04-12T12:35:10.750Z,0.70
2023-04-12T12:37:37.408Z,0.80
2023-04-12T12:40:16.525Z,0.82
2023-04-12T12:42:46.339Z,0.90
2023-04-12T12:45:15.296Z,1.02
2023-04-12T12:47:47.143Z,0.90
2023-04-12T12:50:14.307Z,1.30
2023-04-12T12:52:40.943Z,1.58
2023-04-12T12:55:09.045Z,2.40
2023-04-12T12:57:36.432Z,2.83
2023-04-12T13:00:04.727Z,2.45
2023-04-12T13:02:31.509Z,3.13
2023-04-12T13:04:58.595Z,2.58
2023-04-12T13:07:25.426Z,2.90
2023-04-12T13:09:52.227Z,3.05
2023-04-12T13:12:18.912Z,3.25
2023-04-12T13:14:45.504Z,3.50
2023-04-12T13:17:12.059Z,4.10
2023-04-12T13:19:38.708Z,3.88
2023-04-12T13:22:07.214Z,3.50
2023-04-12T13:24:35.263Z,3.65
2023-04-12T13:27:02.705Z,4.10
2023-04-12T13:29:29.269Z,3.50
2023-04-12T13:31:56.001Z,3.47
2023-04-12T13:34:22.553Z,4.38
2023-04-12T13:36:49.455Z,5.20
2023-04-12T13:39:16.017Z,3.47
2023-04-12T13:41:42.708Z,3.80
2023-04-12T13:44:09.446Z,3.30
2023-04-12T13:46:36.348Z,3.20
2023-04-12T13:49:02.988Z,3.50
2023-04-12T13:51:29.576Z,3.17
2023-04-12T13:53:56.269Z,3.13
2023-04-12T13:56:22.796Z,3.20
2023-04-12T13:58:49.339Z,3.22
2023-04-12T14:01:16.262Z,2.58
2023-04-12T14:03:44.441Z,2.58
2023-04-12T14:06:11.466Z,2.63
2023-04-12T14:08:38.051Z,2.42
2023-04-12T14:11:04.848Z,2.60
2023-04-12T14:13:31.422Z,2.90
2023-04-12T14:15:58.024Z,2.25
2023-04-12T14:18:24.719Z,2.53
2023-04-12T14:20:54.917Z,2.10
2023-04-12T14:25:51.188Z,2.10
2023-04-12T14:28:30.750Z,1.42
2023-04-12T14:30:58.095Z,1.90
2023-04-12T14:33:25.208Z,1.08
2023-04-12T14:35:53.606Z,0.90
2023-04-12T14:38:20.564Z,0.70
2023-04-12T14:40:47.212Z,0.50
2023-04-12T14:43:13.785Z,0.60
2023-04-12T14:45:40.514Z,0.70
2023-04-12T14:48:07.190Z,0.70
2023-04-12T14:50:33.798Z,0.38
2023-04-12T14:53:00.487Z,0.45
2023-04-12T14:55:28.362Z,0.50
2023-04-12T14:57:54.982Z,0.57
2023-04-12T15:00:21.775Z,0.43
2023-04-12T15:02:49.833Z,0.70
2023-04-12T15:05:16.751Z,0.70
2023-04-12T15:07:43.570Z,0.80
2023-04-12T15:10:10.796Z,1.00
2023-04-12T15:12:37.388Z,0.93
2023-04-12T15:15:06.255Z,1.30
2023-04-12T15:17:34.200Z,0.88
2023-04-12T15:20:09.322Z,1.00
2023-04-12T15:22:37.010Z,1.08
2023-04-12T15:25:04.227Z,1.00
2023-04-12T15:27:31.974Z,1.35
2023-04-12T15:29:59.669Z,1.52
2023-04-12T15:32:29.678Z,1.20
2023-04-12T15:34:56.486Z,1.25
2023-04-12T15:37:23.474Z,1.20
2023-04-12T15:39:50.122Z,1.38
2023-04-12T15:42:17.118Z,1.55
2023-04-12T15:44:45.165Z,1.67
2023-04-12T15:47:12.516Z,1.40
2023-04-12T15:49:41.855Z,1.55
2023-04-12T15:52:08.464Z,1.30
2023-04-12T15:54:35.118Z,2.13
2023-04-12T15:57:09.430Z,1.45
2023-04-12T15:59:38.011Z,1.55
2023-04-12T16:02:06.758Z,1.85
2023-04-12T16:04:33.543Z,1.55
2023-04-12T16:07:02.412Z,2.13
2023-04-12T16:09:29.540Z,2.78
2023-04-12T16:11:57.246Z,2.35
2023-04-12T16:14:23.862Z,3.50
2023-04-12T16:16:50.453Z,2.40
2023-04-12T16:19:17.075Z,2.95
2023-04-12T16:21:44.585Z,2.85
2023-04-12T16:24:11.350Z,2.30
2023-04-12T16:26:39.075Z,2.05
2023-04-12T16:29:05.577Z,1.83
2023-04-12T16:31:32.274Z,1.40
2023-04-12T16:33:58.909Z,1.77
2023-04-12T16:36:27.153Z,1.80
2023-04-12T16:38:59.373Z,1.80
2023-04-12T16:41:26.466Z,1.90
2023-04-12T16:43:54.971Z,2.05
2023-04-12T16:46:21.625Z,2.28
2023-04-12T16:48:48.278Z,2.05
2023-04-12T16:51:14.899Z,2.10
2023-04-12T16:53:41.508Z,2.05
2023-04-12T16:56:08.393Z,2.78
2023-04-12T16:58:34.990Z,2.95
2023-04-12T17:01:01.903Z,2.47
2023-04-12T17:03:28.835Z,2.30
2023-04-12T17:05:55.486Z,2.25
2023-04-12T17:08:22.613Z,2.75
2023-04-12T17:10:49.230Z,2.70
2023-04-12T17:13:18.592Z,2.60
2023-04-12T17:15:48.017Z,2.20
2023-04-12T17:18:15.414Z,2.47
2023-04-12T17:20:42.554Z,2.50
2023-04-12T17:23:10.078Z,2.42
2023-04-12T17:25:37.327Z,2.63
2023-04-12T17:28:04.000Z,2.38
2023-04-12T17:30:30.902Z,2.75
2023-04-12T17:32:59.389Z,3.22
2023-04-12T17:35:26.087Z,3.17
2023-04-12T17:37:52.631Z,3.13
2023-04-12T17:40:19.208Z,3.03
2023-04-12T17:42:45.795Z,2.85
2023-04-12T17:45:14.469Z,2.78
2023-04-12T17:47:42.214Z,2.80
2023-04-12T17:50:15.112Z,2.70
2023-04-12T17:52:42.426Z,3.03
2023-04-12T17:55:13.317Z,3.20
2023-04-12T17:57:47.470Z,2.95
2023-04-12T18:00:18.887Z,3.28
2023-04-12T18:02:50.089Z,2.83
2023-04-12T18:05:16.945Z,2.88
2023-04-12T18:07:43.516Z,3.72
2023-04-12T18:10:12.421Z,3.33
2023-04-12T18:12:39.127Z,3.15
2023-04-12T18:15:08.192Z,2.65
2023-04-12T18:17:34.866Z,2.47
2023-04-12T18:20:02.845Z,2.40
2023-04-12T18:22:29.770Z,2.25
2023-04-12T18:24:56.539Z,2.97
2023-04-12T18:27:23.049Z,3.22
2023-04-12T18:29:49.627Z,2.90
2023-04-12T18:32:16.466Z,2.75
2023-04-12T18:34:43.049Z,2.97
2023-04-12T18:37:09.772Z,2.72
2023-04-12T18:39:36.574Z,2.63
2023-04-12T18:42:03.297Z,2.72
2023-04-12T18:44:30.521Z,2.53
2023-04-12T18:46:57.088Z,2.45
2023-04-12T18:49:24.187Z,2.13
2023-04-12T18:51:53.136Z,2.72
2023-04-12T18:54:20.983Z,4.05
2023-04-12T18:56:47.522Z,4.53
2023-04-12T18:59:17.817Z,4.00
2023-04-12T19:01:45.343Z,3.88
2023-04-12T19:04:12.325Z,3.75
2023-04-12T19:06:39.012Z,3.78
2023-04-12T19:09:05.855Z,4.15
2023-04-12T19:11:34.694Z,3.95
2023-04-12T19:14:03.124Z,4.38
2023-04-12T19:16:29.834Z,4.68
2023-04-12T19:19:00.146Z,5.13
2023-04-12T19:21:28.945Z,4.00
2023-04-12T19:23:56.186Z,4.03
2023-04-12T19:26:23.299Z,4.65
2023-04-12T19:28:55.361Z,4.05
2023-04-12T19:31:23.606Z,4.32
2023-04-12T19:33:54.375Z,4.40
2023-04-12T19:36:21.037Z,5.43
2023-04-12T19:38:48.544Z,4.63
2023-04-12T19:41:17.517Z,4.90
2023-04-12T19:43:44.038Z,4.13
2023-04-12T19:46:10.993Z,4.53
2023-04-12T19:48:37.757Z,5.78
2023-04-12T19:51:05.221Z,4.28
2023-04-12T19:53:33.146Z,4.30
2023-04-12T19:56:00.683Z,4.40
2023-04-12T19:58:27.254Z,4.68
2023-04-12T20:00:54.928Z,3.72
2023-04-12T20:03:21.933Z,3.90
2023-04-12T20:05:48.621Z,3.72
2023-04-12T20:08:15.870Z,3.20
2023-04-12T20:10:42.827Z,4.80
2023-04-12T20:13:14.939Z,3.10
2023-04-12T20:15:42.778Z,3.08
2023-04-12T20:18:11.293Z,3.85
2023-04-12T20:20:38.063Z,3.20
2023-04-12T20:23:04.668Z,3.83
2023-04-12T20:25:35.510Z,3.70
2023-04-12T20:28:02.856Z,3.67
2023-04-12T20:30:30.029Z,3.67
2023-04-12T20:32:59.495Z,3.10
2023-04-12T20:35:27.859Z,3.45
2023-04-12T20:37:54.935Z,2.65
2023-04-12T20:40:23.212Z,2.97
2023-04-12T20:42:50.007Z,3.05
2023-04-12T20:45:17.757Z,4.38
2023-04-12T20:47:44.537Z,3.45
2023-04-12T20:50:11.365Z,3.00
2023-04-12T20:52:38.167Z,3.47
2023-04-12T20:55:06.155Z,3.65
2023-04-12T20:57:33.079Z,3.28
2023-04-12T21:00:01.633Z,2.72
2023-04-12T21:02:28.569Z,3.40
2023-04-12T21:04:57.067Z,2.88
2023-04-12T21:07:26.095Z,4.00
2023-04-12T21:09:52.709Z,3.92
2023-04-12T21:12:19.568Z,3.28
2023-04-12T21:14:50.131Z,3.40
2023-04-12T21:17:20.733Z,3.20
2023-04-12T21:19:47.554Z,2.30
2023-04-12T21:22:14.157Z,2.28
2023-04-12T21:24:40.764Z,2.65
2023-04-12T21:27:08.448Z,2.70
2023-04-12T21:29:40.920Z,2.10
2023-04-12T21:32:08.588Z,2.70
2023-04-12T21:34:35.565Z,2.40
2023-04-12T21:37:02.708Z,3.00
2023-04-12T21:39:29.364Z,2.40
2023-04-12T21:41:59.092Z,3.15
2023-04-12T21:44:26.545Z,2.83
2023-04-12T21:46:53.126Z,2.88
2023-04-12T21:49:19.614Z,2.60
2023-04-12T21:51:46.991Z,2.25
2023-04-12T21:54:14.380Z,3.15
2023-04-12T21:56:40.921Z,3.03
2023-04-12T21:59:08.178Z,2.95
2023-04-12T22:01:34.905Z,3.30
2023-04-12T22:04:01.618Z,3.83
2023-04-12T22:06:28.184Z,4.50
2023-04-12T22:08:55.536Z,4.10
2023-04-12T22:11:22.114Z,4.50
2023-04-12T22:13:48.788Z,4.68
2023-04-12T22:16:15.750Z,4.85
2023-04-12T22:18:45.756Z,5.38
2023-04-12T22:21:13.057Z,5.15
2023-04-12T22:23:40.562Z,5.80
2023-04-12T22:26:12.166Z,6.03
2023-04-12T22:28:38.825Z,6.35
2023-04-12T22:31:06.352Z,6.10
2023-04-12T22:33:33.317Z,5.68
2023-04-12T22:36:02.021Z,5.80
2023-04-12T22:38:28.598Z,6.43
2023-04-12T22:41:01.882Z,7.28
2023-04-12T22:43:41.691Z,7.03
2023-04-12T22:46:18.095Z,8.27
2023-04-12T22:48:47.606Z,8.43
2023-04-12T22:51:14.878Z,7.90
2023-04-12T22:53:41.369Z,7.43
2023-04-12T22:56:14.075Z,7.45
2023-04-12T22:58:42.757Z,8.80
2023-04-12T23:01:10.777Z,7.93
2023-04-12T23:03:38.149Z,8.48
2023-04-12T23:06:07.979Z,8.07
2023-04-12T23:08:34.522Z,8.10
2023-04-12T23:11:04.682Z,8.48
2023-04-12T23:13:34.809Z,8.50
2023-04-12T23:16:07.356Z,8.23
2023-04-12T23:18:33.955Z,8.25
2023-04-12T23:21:01.645Z,7.93
2023-04-12T23:23:28.493Z,8.00
2023-04-12T23:25:55.441Z,7.68
2023-04-12T23:28:25.796Z,7.10
2023-04-12T23:30:52.361Z,6.90
2023-04-12T23:33:21.049Z,6.68
2023-04-12T23:35:49.502Z,6.90
2023-04-12T23:38:23.031Z,6.72
2023-04-12T23:40:56.497Z,6.22
2023-04-12T23:43:24.399Z,6.68
2023-04-12T23:45:54.754Z,7.63
2023-04-12T23:48:21.806Z,5.40
2023-04-12T23:50:49.009Z,5.60
2023-04-12T23:53:16.755Z,4.95
2023-04-12T23:55:46.972Z,5.13
2023-04-12T23:58:14.195Z,4.70
